sensor_id;sensor_type;location;lat;lon;timestamp;P1;durP1;ratioP1;P2;durP2;ratioP2
11287;SDS011;5700;50.996;7.044;2023-04-06T00:00:07;7.30;;;3.40;;
11287;SDS011;5700;50.996;7.044;2023-04-06T00:03:10;5.85;;;2.95;;
11287;SDS011;5700;50.996;7.044;2023-04-06T00:06:12;13.77;;;5.35;;
11287;SDS011;5700;50.996;7.044;2023-04-06T00:09:13;9.90;;;4.63;;
11287;SDS011;5700;50.996;7.044;2023-04-06T00:12:15;9.95;;;5.57;;
11287;SDS011;5700;50.996;7.044;2023-04-06T00:15:16;11.40;;;5.45;;
11287;SDS011;5700;50.996;7.044;2023-04-06T00:18:19;11.82;;;4.93;;
11287;SDS011;5700;50.996;7.044;2023-04-06T00:21:20;7.57;;;3.35;;
11287;SDS011;5700;50.996;7.044;2023-04-06T00:24:22;7.13;;;3.10;;
11287;SDS011;5700;50.996;7.044;2023-04-06T00:27:23;6.53;;;3.38;;
11287;SDS011;5700;50.996;7.044;2023-04-06T00:30:25;7.72;;;3.60;;
11287;SDS011;5700;50.996;7.044;2023-04-06T00:33:28;6.57;;;3.50;;
11287;SDS011;5700;50.996;7.044;2023-04-06T00:36:29;8.10;;;3.67;;
11287;SDS011;5700;50.996;7.044;2023-04-06T00:39:31;5.97;;;2.95;;
11287;SDS011;5700;50.996;7.044;2023-04-06T00:42:32;6.85;;;3.35;;
11287;SDS011;5700;50.996;7.044;2023-04-06T00:45:34;6.53;;;3.33;;
11287;SDS011;5700;50.996;7.044;2023-04-06T00:48:37;6.13;;;2.47;;
11287;SDS011;5700;50.996;7.044;2023-04-06T00:51:39;7.78;;;3.30;;
11287;SDS011;5700;50.996;7.044;2023-04-06T00:54:40;6.00;;;3.67;;
11287;SDS011;5700;50.996;7.044;2023-04-06T00:57:42;9.13;;;3.05;;
11287;SDS011;5700;50.996;7.044;2023-04-06T01:00:43;6.88;;;2.95;;
11287;SDS011;5700;50.996;7.044;2023-04-06T01:03:46;6.43;;;3.20;;
11287;SDS011;5700;50.996;7.044;2023-04-06T01:06:49;10.13;;;3.28;;
11287;SDS011;5700;50.996;7.044;2023-04-06T01:09:52;7.00;;;3.58;;
11287;SDS011;5700;50.996;7.044;2023-04-06T01:12:54;6.85;;;3.60;;
11287;SDS011;5700;50.996;7.044;2023-04-06T01:15:55;5.22;;;2.38;;
11287;SDS011;5700;50.996;7.044;2023-04-06T01:18:58;8.32;;;3.70;;
11287;SDS011;5700;50.996;7.044;2023-04-06T01:22:00;7.28;;;3.30;;
11287;SDS011;5700;50.996;7.044;2023-04-06T01:25:03;8.15;;;3.13;;
11287;SDS011;5700;50.996;7.044;2023-04-06T01:28:05;6.22;;;3.75;;
11287;SDS011;5700;50.996;7.044;2023-04-06T01:31:07;7.15;;;3.00;;
11287;SDS011;5700;50.996;7.044;2023-04-06T01:34:09;7.63;;;3.72;;
11287;SDS011;5700;50.996;7.044;2023-04-06T01:37:10;7.13;;;3.45;;
11287;SDS011;5700;50.996;7.044;2023-04-06T01:40:13;5.60;;;2.88;;
11287;SDS011;5700;50.996;7.044;2023-04-06T01:43:15;6.90;;;3.40;;
11287;SDS011;5700;50.996;7.044;2023-04-06T01:46:16;8.05;;;3.45;;
11287;SDS011;5700;50.996;7.044;2023-04-06T01:49:18;7.10;;;3.20;;
11287;SDS011;5700;50.996;7.044;2023-04-06T01:52:19;6.13;;;3.58;;
11287;SDS011;5700;50.996;7.044;2023-04-06T01:55:22;6.40;;;3.00;;
11287;SDS011;5700;50.996;7.044;2023-04-06T01:58:24;12.00;;;3.70;;
11287;SDS011;5700;50.996;7.044;2023-04-06T02:01:26;7.53;;;3.53;;
11287;SDS011;5700;50.996;7.044;2023-04-06T02:04:27;7.75;;;2.95;;
11287;SDS011;5700;50.996;7.044;2023-04-06T02:07:29;8.05;;;2.97;;
11287;SDS011;5700;50.996;7.044;2023-04-06T02:10:32;6.68;;;3.28;;
11287;SDS011;5700;50.996;7.044;2023-04-06T02:13:33;6.20;;;3.00;;
11287;SDS011;5700;50.996;7.044;2023-04-06T02:16:35;7.63;;;3.42;;
11287;SDS011;5700;50.996;7.044;2023-04-06T02:19:36;8.43;;;3.15;;
11287;SDS011;5700;50.996;7.044;2023-04-06T02:22:38;6.15;;;3.17;;
11287;SDS011;5700;50.996;7.044;2023-04-06T02:25:41;10.63;;;3.88;;
11287;SDS011;5700;50.996;7.044;2023-04-06T02:28:43;5.35;;;3.05;;
11287;SDS011;5700;50.996;7.044;2023-04-06T02:31:44;11.38;;;3.95;;
11287;SDS011;5700;50.996;7.044;2023-04-06T02:34:46;7.40;;;3.65;;
11287;SDS011;5700;50.996;7.044;2023-04-06T02:37:48;8.48;;;3.45;;
11287;SDS011;5700;50.996;7.044;2023-04-06T02:40:50;8.18;;;3.70;;
11287;SDS011;5700;50.996;7.044;2023-04-06T02:43:52;10.00;;;3.72;;
11287;SDS011;5700;50.996;7.044;2023-04-06T02:46:53;8.88;;;3.47;;
11287;SDS011;5700;50.996;7.044;2023-04-06T02:49:55;6.43;;;3.47;;
11287;SDS011;5700;50.996;7.044;2023-04-06T02:52:56;7.85;;;3.60;;
11287;SDS011;5700;50.996;7.044;2023-04-06T02:55:59;6.45;;;3.40;;
11287;SDS011;5700;50.996;7.044;2023-04-06T02:59:00;7.82;;;3.60;;
11287;SDS011;5700;50.996;7.044;2023-04-06T03:02:02;8.23;;;3.78;;
11287;SDS011;5700;50.996;7.044;2023-04-06T03:05:04;14.50;;;3.42;;
11287;SDS011;5700;50.996;7.044;2023-04-06T03:08:05;7.43;;;3.58;;
11287;SDS011;5700;50.996;7.044;2023-04-06T03:11:08;7.78;;;3.42;;
11287;SDS011;5700;50.996;7.044;2023-04-06T03:14:09;6.45;;;3.35;;
11287;SDS011;5700;50.996;7.044;2023-04-06T03:17:11;5.90;;;3.65;;
11287;SDS011;5700;50.996;7.044;2023-04-06T03:20:12;6.47;;;3.40;;
11287;SDS011;5700;50.996;7.044;2023-04-06T03:23:14;8.15;;;3.45;;
11287;SDS011;5700;50.996;7.044;2023-04-06T03:26:17;7.45;;;3.42;;
11287;SDS011;5700;50.996;7.044;2023-04-06T03:29:19;9.50;;;4.05;;
11287;SDS011;5700;50.996;7.044;2023-04-06T03:32:20;7.72;;;3.45;;
11287;SDS011;5700;50.996;7.044;2023-04-06T03:35:21;8.05;;;3.78;;
11287;SDS011;5700;50.996;7.044;2023-04-06T03:38:23;8.93;;;3.75;;
11287;SDS011;5700;50.996;7.044;2023-04-06T03:41:26;6.47;;;3.22;;
11287;SDS011;5700;50.996;7.044;2023-04-06T03:44:27;7.00;;;3.92;;
11287;SDS011;5700;50.996;7.044;2023-04-06T03:47:29;7.03;;;3.75;;
11287;SDS011;5700;50.996;7.044;2023-04-06T03:50:30;7.22;;;3.92;;
11287;SDS011;5700;50.996;7.044;2023-04-06T03:53:32;7.00;;;3.55;;
11287;SDS011;5700;50.996;7.044;2023-04-06T03:56:35;10.55;;;3.58;;
11287;SDS011;5700;50.996;7.044;2023-04-06T03:59:36;14.02;;;4.13;;
11287;SDS011;5700;50.996;7.044;2023-04-06T04:02:38;6.20;;;3.50;;
11287;SDS011;5700;50.996;7.044;2023-04-06T04:05:39;8.57;;;3.72;;
11287;SDS011;5700;50.996;7.044;2023-04-06T04:08:41;8.00;;;3.55;;
11287;SDS011;5700;50.996;7.044;2023-04-06T04:11:43;8.52;;;3.45;;
11287;SDS011;5700;50.996;7.044;2023-04-06T04:14:45;7.10;;;4.07;;
11287;SDS011;5700;50.996;7.044;2023-04-06T04:17:46;10.23;;;3.88;;
11287;SDS011;5700;50.996;7.044;2023-04-06T04:20:49;7.30;;;3.92;;
11287;SDS011;5700;50.996;7.044;2023-04-06T04:23:50;7.35;;;3.78;;
11287;SDS011;5700;50.996;7.044;2023-04-06T04:26:53;10.75;;;3.72;;
11287;SDS011;5700;50.996;7.044;2023-04-06T04:29:55;6.72;;;3.15;;
11287;SDS011;5700;50.996;7.044;2023-04-06T04:32:56;7.32;;;3.70;;
11287;SDS011;5700;50.996;7.044;2023-04-06T04:35:58;12.13;;;3.83;;
11287;SDS011;5700;50.996;7.044;2023-04-06T04:39:00;9.65;;;3.50;;
11287;SDS011;5700;50.996;7.044;2023-04-06T04:42:03;6.25;;;3.58;;
11287;SDS011;5700;50.996;7.044;2023-04-06T04:45:05;6.28;;;3.47;;
11287;SDS011;5700;50.996;7.044;2023-04-06T04:48:07;11.88;;;3.75;;
11287;SDS011;5700;50.996;7.044;2023-04-06T04:51:08;7.20;;;3.53;;
11287;SDS011;5700;50.996;7.044;2023-04-06T04:54:10;7.65;;;4.03;;
11287;SDS011;5700;50.996;7.044;2023-04-06T04:57:13;6.32;;;3.15;;
11287;SDS011;5700;50.996;7.044;2023-04-06T05:00:14;11.02;;;3.75;;
11287;SDS011;5700;50.996;7.044;2023-04-06T05:03:17;10.27;;;3.65;;
11287;SDS011;5700;50.996;7.044;2023-04-06T05:06:21;6.60;;;2.92;;
11287;SDS011;5700;50.996;7.044;2023-04-06T05:09:22;7.97;;;3.83;;
11287;SDS011;5700;50.996;7.044;2023-04-06T05:12:25;6.60;;;2.67;;
11287;SDS011;5700;50.996;7.044;2023-04-06T05:15:28;7.30;;;2.92;;
11287;SDS011;5700;50.996;7.044;2023-04-06T05:18:29;5.75;;;2.97;;
11287;SDS011;5700;50.996;7.044;2023-04-06T05:21:31;4.78;;;2.78;;
11287;SDS011;5700;50.996;7.044;2023-04-06T05:24:32;6.07;;;3.17;;
11287;SDS011;5700;50.996;7.044;2023-04-06T05:27:36;8.15;;;2.88;;
11287;SDS011;5700;50.996;7.044;2023-04-06T05:30:37;5.50;;;2.35;;
11287;SDS011;5700;50.996;7.044;2023-04-06T05:33:39;2.60;;;2.08;;
11287;SDS011;5700;50.996;7.044;2023-04-06T05:36:40;1.95;;;1.52;;
11287;SDS011;5700;50.996;7.044;2023-04-06T05:39:42;2.97;;;1.83;;
11287;SDS011;5700;50.996;7.044;2023-04-06T05:42:45;3.33;;;2.35;;
11287;SDS011;5700;50.996;7.044;2023-04-06T05:45:46;3.15;;;2.05;;
11287;SDS011;5700;50.996;7.044;2023-04-06T05:48:48;3.80;;;1.65;;
11287;SDS011;5700;50.996;7.044;2023-04-06T05:51:49;10.40;;;3.17;;
11287;SDS011;5700;50.996;7.044;2023-04-06T05:54:51;6.95;;;3.10;;
11287;SDS011;5700;50.996;7.044;2023-04-06T05:57:54;5.28;;;2.58;;
11287;SDS011;5700;50.996;7.044;2023-04-06T06:00:56;5.97;;;2.90;;
11287;SDS011;5700;50.996;7.044;2023-04-06T06:04:00;6.57;;;3.63;;
11287;SDS011;5700;50.996;7.044;2023-04-06T06:07:01;6.10;;;2.95;;
11287;SDS011;5700;50.996;7.044;2023-04-06T06:10:03;7.15;;;3.63;;
11287;SDS011;5700;50.996;7.044;2023-04-06T06:13:06;10.75;;;3.65;;
11287;SDS011;5700;50.996;7.044;2023-04-06T06:16:08;5.40;;;2.42;;
11287;SDS011;5700;50.996;7.044;2023-04-06T06:19:09;7.18;;;3.53;;
11287;SDS011;5700;50.996;7.044;2023-04-06T06:22:11;8.88;;;3.10;;
11287;SDS011;5700;50.996;7.044;2023-04-06T06:25:12;7.63;;;2.90;;
11287;SDS011;5700;50.996;7.044;2023-04-06T06:28:16;11.43;;;3.38;;
11287;SDS011;5700;50.996;7.044;2023-04-06T06:31:18;4.80;;;3.05;;
11287;SDS011;5700;50.996;7.044;2023-04-06T06:34:20;6.18;;;2.97;;
11287;SDS011;5700;50.996;7.044;2023-04-06T06:37:22;6.22;;;3.75;;
11287;SDS011;5700;50.996;7.044;2023-04-06T06:40:23;7.97;;;3.53;;
11287;SDS011;5700;50.996;7.044;2023-04-06T06:43:27;7.95;;;3.97;;
11287;SDS011;5700;50.996;7.044;2023-04-06T06:46:28;7.97;;;3.65;;
11287;SDS011;5700;50.996;7.044;2023-04-06T06:49:30;6.15;;;3.38;;
11287;SDS011;5700;50.996;7.044;2023-04-06T06:52:31;7.18;;;4.03;;
11287;SDS011;5700;50.996;7.044;2023-04-06T06:55:33;9.02;;;3.30;;
11287;SDS011;5700;50.996;7.044;2023-04-06T06:58:36;7.05;;;3.22;;
11287;SDS011;5700;50.996;7.044;2023-04-06T07:01:37;5.72;;;3.17;;
11287;SDS011;5700;50.996;7.044;2023-04-06T07:04:39;11.75;;;3.33;;
11287;SDS011;5700;50.996;7.044;2023-04-06T07:07:40;6.00;;;3.22;;
11287;SDS011;5700;50.996;7.044;2023-04-06T07:10:42;10.45;;;4.15;;
11287;SDS011;5700;50.996;7.044;2023-04-06T07:13:45;7.18;;;3.35;;
11287;SDS011;5700;50.996;7.044;2023-04-06T07:16:46;10.90;;;4.57;;
11287;SDS011;5700;50.996;7.044;2023-04-06T07:19:48;9.30;;;4.68;;
11287;SDS011;5700;50.996;7.044;2023-04-06T07:22:50;7.45;;;3.55;;
11287;SDS011;5700;50.996;7.044;2023-04-06T07:25:51;7.47;;;3.30;;
11287;SDS011;5700;50.996;7.044;2023-04-06T07:28:56;7.75;;;3.13;;
11287;SDS011;5700;50.996;7.044;2023-04-06T07:31:57;5.18;;;2.65;;
11287;SDS011;5700;50.996;7.044;2023-04-06T07:34:58;7.75;;;3.72;;
11287;SDS011;5700;50.996;7.044;2023-04-06T07:38:00;6.32;;;2.72;;
11287;SDS011;5700;50.996;7.044;2023-04-06T07:41:01;5.57;;;2.72;;
11287;SDS011;5700;50.996;7.044;2023-04-06T07:44:05;6.38;;;3.17;;
11287;SDS011;5700;50.996;7.044;2023-04-06T07:47:06;4.50;;;2.40;;
11287;SDS011;5700;50.996;7.044;2023-04-06T07:50:08;6.75;;;2.75;;
11287;SDS011;5700;50.996;7.044;2023-04-06T07:53:10;7.93;;;3.22;;
11287;SDS011;5700;50.996;7.044;2023-04-06T07:56:11;6.78;;;2.90;;
11287;SDS011;5700;50.996;7.044;2023-04-06T07:59:16;7.47;;;2.97;;
11287;SDS011;5700;50.996;7.044;2023-04-06T08:02:18;5.25;;;3.00;;
11287;SDS011;5700;50.996;7.044;2023-04-06T08:05:19;9.38;;;3.47;;
11287;SDS011;5700;50.996;7.044;2023-04-06T08:08:21;7.15;;;3.13;;
11287;SDS011;5700;50.996;7.044;2023-04-06T08:11:22;8.15;;;3.63;;
11287;SDS011;5700;50.996;7.044;2023-04-06T08:14:25;7.40;;;3.05;;
11287;SDS011;5700;50.996;7.044;2023-04-06T08:17:27;10.13;;;3.50;;
11287;SDS011;5700;50.996;7.044;2023-04-06T08:20:30;8.55;;;3.42;;
11287;SDS011;5700;50.996;7.044;2023-04-06T08:23:31;6.47;;;3.35;;
11287;SDS011;5700;50.996;7.044;2023-04-06T08:26:33;6.93;;;3.65;;
11287;SDS011;5700;50.996;7.044;2023-04-06T08:29:35;6.85;;;3.75;;
11287;SDS011;5700;50.996;7.044;2023-04-06T08:32:37;10.75;;;4.18;;
11287;SDS011;5700;50.996;7.044;2023-04-06T08:35:38;7.38;;;3.60;;
11287;SDS011;5700;50.996;7.044;2023-04-06T08:38:40;7.22;;;3.30;;
11287;SDS011;5700;50.996;7.044;2023-04-06T08:41:43;7.72;;;3.33;;
11287;SDS011;5700;50.996;7.044;2023-04-06T08:44:47;6.10;;;3.10;;
11287;SDS011;5700;50.996;7.044;2023-04-06T08:47:51;5.90;;;2.90;;
11287;SDS011;5700;50.996;7.044;2023-04-06T08:50:53;8.40;;;3.55;;
11287;SDS011;5700;50.996;7.044;2023-04-06T08:53:56;8.45;;;3.80;;
11287;SDS011;5700;50.996;7.044;2023-04-06T08:56:58;9.15;;;3.42;;
11287;SDS011;5700;50.996;7.044;2023-04-06T09:00:01;7.97;;;3.60;;
11287;SDS011;5700;50.996;7.044;2023-04-06T09:03:03;8.45;;;3.95;;
11287;SDS011;5700;50.996;7.044;2023-04-06T09:06:06;10.18;;;3.55;;
11287;SDS011;5700;50.996;7.044;2023-04-06T09:09:08;8.13;;;3.20;;
11287;SDS011;5700;50.996;7.044;2023-04-06T09:12:10;9.52;;;3.60;;
11287;SDS011;5700;50.996;7.044;2023-04-06T09:15:18;10.52;;;4.18;;
11287;SDS011;5700;50.996;7.044;2023-04-06T09:18:27;10.00;;;3.70;;
11287;SDS011;5700;50.996;7.044;2023-04-06T09:21:29;8.77;;;4.25;;
11287;SDS011;5700;50.996;7.044;2023-04-06T09:27:48;10.10;;;4.43;;
11287;SDS011;5700;50.996;7.044;2023-04-06T09:30:52;9.55;;;4.18;;
11287;SDS011;5700;50.996;7.044;2023-04-06T09:33:53;6.72;;;3.78;;
11287;SDS011;5700;50.996;7.044;2023-04-06T09:36:55;12.48;;;4.57;;
11287;SDS011;5700;50.996;7.044;2023-04-06T09:40:01;10.70;;;4.10;;
11287;SDS011;5700;50.996;7.044;2023-04-06T09:43:04;11.50;;;3.72;;
11287;SDS011;5700;50.996;7.044;2023-04-06T09:46:08;12.93;;;4.35;;
11287;SDS011;5700;50.996;7.044;2023-04-06T09:49:10;8.85;;;4.25;;
11287;SDS011;5700;50.996;7.044;2023-04-06T09:52:12;15.43;;;5.07;;
11287;SDS011;5700;50.996;7.044;2023-04-06T09:55:15;7.50;;;3.95;;
11287;SDS011;5700;50.996;7.044;2023-04-06T09:58:20;12.48;;;4.25;;
11287;SDS011;5700;50.996;7.044;2023-04-06T10:01:27;12.07;;;4.53;;
11287;SDS011;5700;50.996;7.044;2023-04-06T10:04:32;9.57;;;4.03;;
11287;SDS011;5700;50.996;7.044;2023-04-06T10:07:38;9.45;;;4.35;;
11287;SDS011;5700;50.996;7.044;2023-04-06T10:10:40;11.23;;;4.97;;
11287;SDS011;5700;50.996;7.044;2023-04-06T10:13:43;10.80;;;4.38;;
11287;SDS011;5700;50.996;7.044;2023-04-06T10:16:46;9.13;;;3.92;;
11287;SDS011;5700;50.996;7.044;2023-04-06T10:19:52;11.27;;;4.68;;
11287;SDS011;5700;50.996;7.044;2023-04-06T10:22:55;13.68;;;5.28;;
11287;SDS011;5700;50.996;7.044;2023-04-06T10:26:01;12.75;;;4.75;;
11287;SDS011;5700;50.996;7.044;2023-04-06T10:29:03;10.20;;;4.28;;
11287;SDS011;5700;50.996;7.044;2023-04-06T10:32:06;14.43;;;4.95;;
11287;SDS011;5700;50.996;7.044;2023-04-06T10:35:08;11.35;;;4.85;;
11287;SDS011;5700;50.996;7.044;2023-04-06T10:38:11;14.00;;;4.95;;
11287;SDS011;5700;50.996;7.044;2023-04-06T10:41:16;10.48;;;4.30;;
11287;SDS011;5700;50.996;7.044;2023-04-06T10:44:19;12.10;;;4.68;;
11287;SDS011;5700;50.996;7.044;2023-04-06T10:47:23;12.27;;;4.65;;
11287;SDS011;5700;50.996;7.044;2023-04-06T10:50:25;9.68;;;3.47;;
11287;SDS011;5700;50.996;7.044;2023-04-06T10:53:26;13.05;;;5.75;;
11287;SDS011;5700;50.996;7.044;2023-04-06T10:56:28;14.77;;;4.70;;
11287;SDS011;5700;50.996;7.044;2023-04-06T10:59:31;15.13;;;5.50;;
11287;SDS011;5700;50.996;7.044;2023-04-06T11:02:34;11.13;;;5.03;;
11287;SDS011;5700;50.996;7.044;2023-04-06T11:05:36;12.88;;;4.53;;
11287;SDS011;5700;50.996;7.044;2023-04-06T11:08:38;13.77;;;5.55;;
11287;SDS011;5700;50.996;7.044;2023-04-06T11:11:39;10.35;;;5.00;;
11287;SDS011;5700;50.996;7.044;2023-04-06T11:14:41;12.50;;;4.90;;
11287;SDS011;5700;50.996;7.044;2023-04-06T11:17:55;13.75;;;5.45;;
11287;SDS011;5700;50.996;7.044;2023-04-06T11:20:56;15.38;;;5.53;;
11287;SDS011;5700;50.996;7.044;2023-04-06T11:24:03;11.95;;;5.18;;
11287;SDS011;5700;50.996;7.044;2023-04-06T11:27:06;13.32;;;4.78;;
11287;SDS011;5700;50.996;7.044;2023-04-06T11:30:07;10.70;;;5.40;;
11287;SDS011;5700;50.996;7.044;2023-04-06T11:33:11;10.65;;;5.13;;
11287;SDS011;5700;50.996;7.044;2023-04-06T11:36:21;12.27;;;5.68;;
11287;SDS011;5700;50.996;7.044;2023-04-06T11:39:23;13.27;;;5.72;;
11287;SDS011;5700;50.996;7.044;2023-04-06T11:42:27;13.65;;;6.15;;
11287;SDS011;5700;50.996;7.044;2023-04-06T11:45:38;17.45;;;6.05;;
11287;SDS011;5700;50.996;7.044;2023-04-06T11:48:44;12.93;;;5.00;;
11287;SDS011;5700;50.996;7.044;2023-04-06T11:51:47;13.10;;;5.45;;
11287;SDS011;5700;50.996;7.044;2023-04-06T11:54:49;13.80;;;5.38;;
11287;SDS011;5700;50.996;7.044;2023-04-06T11:57:51;14.80;;;5.72;;
11287;SDS011;5700;50.996;7.044;2023-04-06T12:00:53;13.02;;;4.95;;
11287;SDS011;5700;50.996;7.044;2023-04-06T12:03:56;15.10;;;5.53;;
11287;SDS011;5700;50.996;7.044;2023-04-06T12:06:58;12.02;;;4.80;;
11287;SDS011;5700;50.996;7.044;2023-04-06T12:10:00;12.25;;;5.28;;
11287;SDS011;5700;50.996;7.044;2023-04-06T12:13:02;13.05;;;4.95;;
11287;SDS011;5700;50.996;7.044;2023-04-06T12:16:05;11.70;;;4.97;;
11287;SDS011;5700;50.996;7.044;2023-04-06T12:19:07;10.40;;;5.00;;
11287;SDS011;5700;50.996;7.044;2023-04-06T12:22:09;11.88;;;5.32;;
11287;SDS011;5700;50.996;7.044;2023-04-06T12:25:10;11.73;;;5.18;;
11287;SDS011;5700;50.996;7.044;2023-04-06T12:28:12;12.27;;;5.30;;
11287;SDS011;5700;50.996;7.044;2023-04-06T12:31:14;10.57;;;4.78;;
11287;SDS011;5700;50.996;7.044;2023-04-06T12:34:18;10.82;;;5.22;;
11287;SDS011;5700;50.996;7.044;2023-04-06T12:37:19;11.25;;;4.72;;
11287;SDS011;5700;50.996;7.044;2023-04-06T12:40:21;10.77;;;4.63;;
11287;SDS011;5700;50.996;7.044;2023-04-06T12:43:22;9.68;;;4.63;;
11287;SDS011;5700;50.996;7.044;2023-04-06T12:46:24;8.27;;;3.92;;
11287;SDS011;5700;50.996;7.044;2023-04-06T12:49:27;10.00;;;4.35;;
11287;SDS011;5700;50.996;7.044;2023-04-06T12:52:29;11.20;;;4.57;;
11287;SDS011;5700;50.996;7.044;2023-04-06T12:55:31;12.10;;;4.47;;
11287;SDS011;5700;50.996;7.044;2023-04-06T12:58:35;11.30;;;4.28;;
11287;SDS011;5700;50.996;7.044;2023-04-06T13:01:37;8.95;;;4.35;;
11287;SDS011;5700;50.996;7.044;2023-04-06T13:04:40;8.48;;;3.95;;
11287;SDS011;5700;50.996;7.044;2023-04-06T13:07:43;10.38;;;3.83;;
11287;SDS011;5700;50.996;7.044;2023-04-06T13:10:46;7.57;;;3.42;;
11287;SDS011;5700;50.996;7.044;2023-04-06T13:13:48;8.07;;;3.10;;
11287;SDS011;5700;50.996;7.044;2023-04-06T13:16:50;8.32;;;4.25;;
11287;SDS011;5700;50.996;7.044;2023-04-06T13:19:53;7.95;;;3.55;;
11287;SDS011;5700;50.996;7.044;2023-04-06T13:22:54;9.25;;;4.47;;
11287;SDS011;5700;50.996;7.044;2023-04-06T13:25:57;7.10;;;3.50;;
11287;SDS011;5700;50.996;7.044;2023-04-06T13:29:00;9.18;;;4.25;;
11287;SDS011;5700;50.996;7.044;2023-04-06T13:32:02;6.65;;;3.00;;
11287;SDS011;5700;50.996;7.044;2023-04-06T13:35:05;10.48;;;4.88;;
11287;SDS011;5700;50.996;7.044;2023-04-06T13:38:07;9.13;;;4.05;;
11287;SDS011;5700;50.996;7.044;2023-04-06T13:41:09;6.95;;;3.55;;
11287;SDS011;5700;50.996;7.044;2023-04-06T13:44:10;9.98;;;4.63;;
11287;SDS011;5700;50.996;7.044;2023-04-06T13:47:12;6.80;;;4.00;;
11287;SDS011;5700;50.996;7.044;2023-04-06T13:50:16;7.68;;;3.35;;
11287;SDS011;5700;50.996;7.044;2023-04-06T13:53:18;6.82;;;3.45;;
11287;SDS011;5700;50.996;7.044;2023-04-06T13:56:19;11.95;;;3.88;;
11287;SDS011;5700;50.996;7.044;2023-04-06T13:59:22;7.75;;;3.63;;
11287;SDS011;5700;50.996;7.044;2023-04-06T14:02:23;9.32;;;3.58;;
11287;SDS011;5700;50.996;7.044;2023-04-06T14:05:31;11.05;;;3.85;;
11287;SDS011;5700;50.996;7.044;2023-04-06T14:08:33;5.13;;;2.72;;
11287;SDS011;5700;50.996;7.044;2023-04-06T14:11:34;6.53;;;3.03;;
11287;SDS011;5700;50.996;7.044;2023-04-06T14:14:36;7.78;;;3.10;;
11287;SDS011;5700;50.996;7.044;2023-04-06T14:17:38;8.65;;;3.75;;
11287;SDS011;5700;50.996;7.044;2023-04-06T14:20:41;9.30;;;3.33;;
11287;SDS011;5700;50.996;7.044;2023-04-06T14:23:43;8.15;;;3.72;;
11287;SDS011;5700;50.996;7.044;2023-04-06T14:26:46;9.73;;;4.13;;
11287;SDS011;5700;50.996;7.044;2023-04-06T14:29:47;10.38;;;4.53;;
11287;SDS011;5700;50.996;7.044;2023-04-06T14:32:49;10.32;;;4.40;;
11287;SDS011;5700;50.996;7.044;2023-04-06T14:35:52;9.55;;;4.05;;
11287;SDS011;5700;50.996;7.044;2023-04-06T14:38:53;8.43;;;4.53;;
11287;SDS011;5700;50.996;7.044;2023-04-06T14:41:55;9.65;;;3.80;;
11287;SDS011;5700;50.996;7.044;2023-04-06T14:44:56;8.48;;;4.05;;
11287;SDS011;5700;50.996;7.044;2023-04-06T14:47:58;11.02;;;4.45;;
11287;SDS011;5700;50.996;7.044;2023-04-06T14:51:00;9.02;;;4.07;;
11287;SDS011;5700;50.996;7.044;2023-04-06T14:54:02;9.07;;;4.05;;
11287;SDS011;5700;50.996;7.044;2023-04-06T14:57:04;7.68;;;3.88;;
11287;SDS011;5700;50.996;7.044;2023-04-06T15:00:05;9.07;;;4.15;;
11287;SDS011;5700;50.996;7.044;2023-04-06T15:03:09;7.53;;;3.53;;
11287;SDS011;5700;50.996;7.044;2023-04-06T15:06:13;8.63;;;3.97;;
11287;SDS011;5700;50.996;7.044;2023-04-06T15:09:16;8.43;;;4.20;;
11287;SDS011;5700;50.996;7.044;2023-04-06T15:12:17;9.70;;;4.20;;
11287;SDS011;5700;50.996;7.044;2023-04-06T15:15:19;7.20;;;3.65;;
11287;SDS011;5700;50.996;7.044;2023-04-06T15:18:20;10.95;;;4.00;;
11287;SDS011;5700;50.996;7.044;2023-04-06T15:21:23;7.80;;;3.60;;
11287;SDS011;5700;50.996;7.044;2023-04-06T15:24:25;6.65;;;2.85;;
11287;SDS011;5700;50.996;7.044;2023-04-06T15:27:26;8.35;;;3.80;;
11287;SDS011;5700;50.996;7.044;2023-04-06T15:30:28;6.50;;;3.17;;
11287;SDS011;5700;50.996;7.044;2023-04-06T15:33:29;4.13;;;2.70;;
11287;SDS011;5700;50.996;7.044;2023-04-06T15:36:32;7.68;;;3.20;;
11287;SDS011;5700;50.996;7.044;2023-04-06T15:39:34;6.18;;;2.17;;
11287;SDS011;5700;50.996;7.044;2023-04-06T15:42:36;7.20;;;2.85;;
11287;SDS011;5700;50.996;7.044;2023-04-06T15:45:38;6.90;;;3.28;;
11287;SDS011;5700;50.996;7.044;2023-04-06T15:48:40;6.22;;;3.45;;
11287;SDS011;5700;50.996;7.044;2023-04-06T15:51:43;7.47;;;2.83;;
11287;SDS011;5700;50.996;7.044;2023-04-06T15:54:44;5.72;;;3.00;;
11287;SDS011;5700;50.996;7.044;2023-04-06T15:57:46;7.50;;;3.20;;
11287;SDS011;5700;50.996;7.044;2023-04-06T16:00:48;7.15;;;3.10;;
11287;SDS011;5700;50.996;7.044;2023-04-06T16:03:49;5.85;;;3.60;;
11287;SDS011;5700;50.996;7.044;2023-04-06T16:06:52;8.38;;;4.50;;
11287;SDS011;5700;50.996;7.044;2023-04-06T16:09:53;9.02;;;5.43;;
11287;SDS011;5700;50.996;7.044;2023-04-06T16:12:55;7.15;;;3.63;;
11287;SDS011;5700;50.996;7.044;2023-04-06T16:15:56;8.80;;;4.78;;
11287;SDS011;5700;50.996;7.044;2023-04-06T16:18:58;9.63;;;4.72;;
11287;SDS011;5700;50.996;7.044;2023-04-06T16:22:00;7.68;;;4.07;;
11287;SDS011;5700;50.996;7.044;2023-04-06T16:25:02;8.88;;;4.75;;
11287;SDS011;5700;50.996;7.044;2023-04-06T16:28:03;11.27;;;6.40;;
11287;SDS011;5700;50.996;7.044;2023-04-06T16:31:06;11.82;;;4.70;;
11287;SDS011;5700;50.996;7.044;2023-04-06T16:34:07;11.32;;;5.18;;
11287;SDS011;5700;50.996;7.044;2023-04-06T16:37:10;8.63;;;4.88;;
11287;SDS011;5700;50.996;7.044;2023-04-06T16:40:11;9.48;;;5.00;;
11287;SDS011;5700;50.996;7.044;2023-04-06T16:43:14;12.18;;;5.38;;
11287;SDS011;5700;50.996;7.044;2023-04-06T16:46:15;8.52;;;4.70;;
11287;SDS011;5700;50.996;7.044;2023-04-06T16:49:17;11.50;;;5.00;;
11287;SDS011;5700;50.996;7.044;2023-04-06T16:52:21;9.90;;;3.95;;
11287;SDS011;5700;50.996;7.044;2023-04-06T16:55:22;10.48;;;5.72;;
11287;SDS011;5700;50.996;7.044;2023-04-06T16:58:23;10.63;;;5.38;;
11287;SDS011;5700;50.996;7.044;2023-04-06T17:01:26;11.73;;;5.20;;
11287;SDS011;5700;50.996;7.044;2023-04-06T17:04:28;12.18;;;5.88;;
11287;SDS011;5700;50.996;7.044;2023-04-06T17:07:31;11.50;;;4.90;;
11287;SDS011;5700;50.996;7.044;2023-04-06T17:10:35;11.60;;;5.30;;
11287;SDS011;5700;50.996;7.044;2023-04-06T17:13:36;9.32;;;4.70;;
11287;SDS011;5700;50.996;7.044;2023-04-06T17:16:37;13.32;;;5.45;;
11287;SDS011;5700;50.996;7.044;2023-04-06T17:19:39;9.60;;;4.88;;
11287;SDS011;5700;50.996;7.044;2023-04-06T17:22:41;11.68;;;5.22;;
11287;SDS011;5700;50.996;7.044;2023-04-06T17:25:45;9.32;;;4.70;;
11287;SDS011;5700;50.996;7.044;2023-04-06T17:28:46;9.90;;;5.28;;
11287;SDS011;5700;50.996;7.044;2023-04-06T17:31:48;11.88;;;5.35;;
11287;SDS011;5700;50.996;7.044;2023-04-06T17:34:49;10.23;;;5.07;;
11287;SDS011;5700;50.996;7.044;2023-04-06T17:37:52;10.88;;;5.82;;
11287;SDS011;5700;50.996;7.044;2023-04-06T17:40:54;15.95;;;6.05;;
11287;SDS011;5700;50.996;7.044;2023-04-06T17:43:55;12.40;;;5.82;;
11287;SDS011;5700;50.996;7.044;2023-04-06T17:46:56;12.98;;;6.82;;
11287;SDS011;5700;50.996;7.044;2023-04-06T17:49:58;12.50;;;5.88;;
11287;SDS011;5700;50.996;7.044;2023-04-06T17:53:00;12.25;;;6.18;;
11287;SDS011;5700;50.996;7.044;2023-04-06T17:56:02;12.05;;;6.60;;
11287;SDS011;5700;50.996;7.044;2023-04-06T17:59:03;9.90;;;5.85;;
11287;SDS011;5700;50.996;7.044;2023-04-06T18:02:07;12.77;;;6.57;;
11287;SDS011;5700;50.996;7.044;2023-04-06T18:05:08;14.82;;;7.18;;
11287;SDS011;5700;50.996;7.044;2023-04-06T18:08:12;12.88;;;7.38;;
11287;SDS011;5700;50.996;7.044;2023-04-06T18:11:14;14.05;;;7.65;;
11287;SDS011;5700;50.996;7.044;2023-04-06T18:14:17;15.30;;;7.88;;
11287;SDS011;5700;50.996;7.044;2023-04-06T18:17:18;16.73;;;7.47;;
11287;SDS011;5700;50.996;7.044;2023-04-06T18:20:20;12.73;;;7.25;;
11287;SDS011;5700;50.996;7.044;2023-04-06T18:23:22;15.70;;;7.82;;
11287;SDS011;5700;50.996;7.044;2023-04-06T18:26:24;14.77;;;8.20;;
11287;SDS011;5700;50.996;7.044;2023-04-06T18:29:25;14.30;;;7.80;;